createdAt,value
2022-10-21T00:04:06.407Z,10.03
2022-10-21T00:06:33.367Z,9.10
2022-10-21T00:09:00.628Z,7.91
2022-10-21T00:11:28.762Z,8.63
2022-10-21T00:13:55.959Z,9.26
2022-10-21T00:16:24.284Z,9.66
2022-10-21T00:18:51.000Z,9.92
2022-10-21T00:21:21.483Z,9.59
2022-10-21T00:23:49.131Z,9.60
2022-10-21T00:26:18.909Z,10.29
2022-10-21T00:28:46.155Z,9.73
2022-10-21T00:31:15.406Z,8.85
2022-10-21T00:33:43.762Z,9.25
2022-10-21T00:36:12.659Z,9.43
2022-10-21T00:38:39.537Z,8.95
2022-10-21T00:41:07.376Z,8.87
2022-10-21T00:43:53.624Z,9.10
2022-10-21T00:46:29.628Z,8.41
2022-10-21T00:49:00.019Z,8.05
2022-10-21T00:51:28.299Z,9.16
2022-10-21T00:53:55.240Z,10.19
2022-10-21T00:56:27.846Z,10.63
2022-10-21T00:58:58.025Z,10.46
2022-10-21T01:01:26.186Z,10.35
2022-10-21T01:03:54.168Z,10.28
2022-10-21T01:06:25.629Z,9.18
2022-10-21T01:08:59.675Z,8.52
2022-10-21T01:11:30.129Z,9.15
2022-10-21T01:14:48.711Z,10.14
2022-10-21T01:17:44.638Z,10.25
2022-10-21T01:20:30.290Z,10.68
2022-10-21T01:23:28.282Z,10.04
2022-10-21T01:26:43.905Z,10.53
2022-10-21T01:29:37.214Z,9.57
2022-10-21T01:32:13.312Z,9.06
2022-10-21T01:34:45.804Z,8.90
2022-10-21T01:37:18.218Z,8.58
2022-10-21T01:39:52.558Z,8.55
2022-10-21T01:42:28.168Z,8.51
2022-10-21T01:45:01.396Z,8.75
2022-10-21T01:47:32.987Z,9.08
2022-10-21T01:50:05.640Z,9.00
2022-10-21T01:52:32.840Z,8.99
2022-10-21T01:55:04.562Z,8.96
2022-10-21T01:57:37.710Z,8.00
2022-10-21T02:02:38.059Z,8.23
2022-10-21T02:05:10.866Z,8.52
2022-10-21T02:07:37.744Z,8.82
2022-10-21T02:10:05.730Z,11.22
2022-10-21T02:12:36.297Z,11.54
2022-10-21T02:15:07.197Z,10.75
2022-10-21T02:17:38.221Z,9.81
2022-10-21T02:20:10.196Z,8.50
2022-10-21T02:22:40.416Z,7.72
2022-10-21T02:25:14.149Z,7.68
2022-10-21T02:27:41.098Z,8.38
2022-10-21T02:30:09.341Z,9.26
2022-10-21T02:32:56.159Z,9.29
2022-10-21T02:35:38.197Z,8.41
2022-10-21T02:38:12.163Z,8.35
2022-10-21T02:40:46.092Z,8.10
2022-10-21T02:43:18.930Z,7.99
2022-10-21T02:45:47.493Z,7.48
2022-10-21T02:48:17.119Z,7.16
2022-10-21T02:50:43.877Z,8.42
2022-10-21T02:53:12.108Z,8.64
2022-10-21T02:55:38.960Z,8.73
2022-10-21T02:58:05.898Z,8.36
2022-10-21T03:00:33.080Z,8.22
2022-10-21T03:03:00.931Z,8.16
2022-10-21T03:05:29.177Z,7.98
2022-10-21T03:07:57.127Z,7.61
2022-10-21T03:10:26.252Z,7.19
2022-10-21T03:12:54.308Z,7.74
2022-10-21T03:15:21.115Z,7.77
2022-10-21T03:17:50.006Z,8.19
2022-10-21T03:20:17.319Z,8.87
2022-10-21T03:22:45.805Z,8.72
2022-10-21T03:25:13.334Z,8.41
2022-10-21T03:27:41.324Z,8.70
2022-10-21T03:30:09.684Z,8.26
2022-10-21T03:32:37.248Z,7.73
2022-10-21T03:35:05.691Z,7.49
2022-10-21T03:37:33.626Z,7.82
2022-10-21T03:40:02.697Z,7.62
2022-10-21T03:42:29.567Z,7.41
2022-10-21T03:44:58.791Z,7.36
2022-10-21T03:47:25.696Z,8.50
2022-10-21T03:49:52.680Z,8.47
2022-10-21T03:52:20.480Z,8.06
2022-10-21T03:54:47.484Z,7.24
2022-10-21T03:57:15.884Z,6.94
2022-10-21T03:59:43.745Z,6.69
2022-10-21T04:02:10.649Z,5.99
2022-10-21T04:04:37.897Z,6.53
2022-10-21T04:07:04.970Z,6.80
2022-10-21T04:09:32.187Z,6.58
2022-10-21T04:11:58.963Z,6.17
2022-10-21T04:14:27.424Z,6.07
2022-10-21T04:17:02.603Z,6.21
2022-10-21T04:19:33.923Z,5.84
2022-10-21T04:22:00.675Z,5.65
2022-10-21T04:24:27.765Z,5.58
2022-10-21T04:26:58.033Z,5.58
2022-10-21T04:29:24.854Z,5.98
2022-10-21T04:31:58.492Z,5.99
2022-10-21T04:34:25.436Z,5.85
2022-10-21T04:36:52.419Z,5.73
2022-10-21T04:39:20.332Z,5.41
2022-10-21T04:41:47.146Z,6.06
2022-10-21T04:44:13.971Z,5.28
2022-10-21T04:46:41.002Z,5.51
2022-10-21T04:49:09.279Z,5.13
2022-10-21T04:51:36.762Z,5.76
2022-10-21T04:54:03.857Z,6.14
2022-10-21T04:56:30.981Z,6.04
2022-10-21T04:58:57.739Z,6.00
2022-10-21T05:01:28.150Z,5.45
2022-10-21T05:03:55.001Z,5.65
2022-10-21T05:06:24.759Z,5.04
2022-10-21T05:08:52.242Z,5.35
2022-10-21T05:11:19.649Z,5.77
2022-10-21T05:13:47.580Z,5.89
2022-10-21T05:16:15.999Z,5.10
2022-10-21T05:18:44.081Z,4.64
2022-10-21T05:21:10.948Z,5.78
2022-10-21T05:23:39.311Z,6.46
2022-10-21T05:26:06.232Z,6.50
2022-10-21T05:28:34.568Z,6.35
2022-10-21T05:31:05.634Z,5.93
2022-10-21T05:33:32.804Z,5.92
2022-10-21T05:36:03.491Z,5.74
2022-10-21T05:38:31.707Z,5.73
2022-10-21T05:41:00.627Z,5.55
2022-10-21T05:43:28.311Z,5.63
2022-10-21T05:45:55.215Z,5.42
2022-10-21T05:48:22.200Z,5.55
2022-10-21T05:50:53.301Z,5.24
2022-10-21T05:53:20.815Z,5.35
2022-10-21T05:55:56.225Z,5.50
2022-10-21T05:58:29.119Z,5.36
2022-10-21T06:00:57.382Z,5.53
2022-10-21T06:03:28.750Z,5.46
2022-10-21T06:05:56.059Z,5.43
2022-10-21T06:08:25.718Z,5.12
2022-10-21T06:11:04.907Z,5.65
2022-10-21T06:13:36.293Z,5.93
2022-10-21T06:18:37.231Z,6.38
2022-10-21T06:21:06.994Z,6.14
2022-10-21T06:23:35.301Z,5.61
2022-10-21T06:26:06.819Z,5.25
2022-10-21T06:28:37.934Z,5.75
2022-10-21T06:31:07.998Z,5.38
2022-10-21T06:33:35.312Z,5.52
2022-10-21T06:36:05.012Z,5.74
2022-10-21T06:38:33.011Z,5.88
2022-10-21T06:41:09.097Z,5.40
2022-10-21T06:43:43.014Z,5.76
2022-10-21T06:46:17.128Z,5.06
2022-10-21T06:48:44.833Z,5.05
2022-10-21T06:51:13.929Z,4.66
2022-10-21T06:53:41.967Z,4.79
2022-10-21T06:56:11.032Z,5.78
2022-10-21T06:58:41.587Z,5.48
2022-10-21T07:01:16.701Z,5.38
2022-10-21T07:03:55.226Z,5.41
2022-10-21T07:06:24.151Z,5.18
2022-10-21T07:08:57.941Z,5.24
2022-10-21T07:11:27.494Z,4.87
2022-10-21T07:13:57.112Z,4.89
2022-10-21T07:16:25.942Z,5.04
2022-10-21T07:18:55.555Z,5.49
2022-10-21T07:21:28.605Z,5.53
2022-10-21T07:23:59.301Z,5.22
2022-10-21T07:26:29.260Z,5.02
2022-10-21T07:29:01.767Z,5.15
2022-10-21T07:31:31.140Z,4.79
2022-10-21T07:33:59.697Z,4.47
2022-10-21T07:36:29.254Z,4.48
2022-10-21T07:39:06.453Z,4.30
2022-10-21T07:41:36.425Z,4.81
2022-10-21T07:44:05.991Z,4.52
2022-10-21T07:46:32.885Z,5.39
2022-10-21T07:49:02.336Z,5.93
2022-10-21T07:51:31.344Z,5.33
2022-10-21T07:54:00.439Z,5.03
2022-10-21T07:56:29.601Z,4.61
2022-10-21T07:58:56.713Z,4.43
2022-10-21T08:01:25.437Z,4.59
2022-10-21T08:03:56.051Z,4.93
2022-10-21T08:06:24.819Z,5.50
2022-10-21T08:08:54.451Z,5.23
2022-10-21T08:11:23.011Z,5.53
2022-10-21T08:13:51.360Z,4.91
2022-10-21T08:16:18.300Z,5.53
2022-10-21T08:18:46.817Z,5.16
2022-10-21T08:21:17.961Z,5.14
2022-10-21T08:23:45.866Z,5.16
2022-10-21T08:26:17.831Z,5.64
2022-10-21T08:28:44.862Z,5.81
2022-10-21T08:31:14.188Z,5.91
2022-10-21T08:33:42.550Z,5.28
2022-10-21T08:36:15.816Z,5.56
2022-10-21T08:38:43.115Z,5.33
2022-10-21T08:41:39.703Z,4.94
2022-10-21T08:44:13.103Z,4.76
2022-10-21T08:46:47.146Z,4.75
2022-10-21T08:49:23.119Z,4.93
2022-10-21T08:51:59.979Z,4.93
2022-10-21T08:54:34.282Z,5.18
2022-10-21T08:57:01.480Z,4.95
2022-10-21T08:59:28.390Z,4.85
2022-10-21T09:02:07.620Z,5.27
2022-10-21T09:04:43.870Z,5.84
2022-10-21T09:07:21.171Z,5.56
2022-10-21T09:09:53.770Z,5.00
2022-10-21T09:12:31.339Z,5.53
2022-10-21T09:15:15.795Z,5.04
2022-10-21T09:20:30.594Z,5.03
2022-10-21T09:23:14.811Z,5.05
2022-10-21T09:25:46.219Z,5.20
2022-10-21T09:28:16.056Z,5.83
2022-10-21T09:30:44.915Z,5.23
2022-10-21T09:33:19.692Z,5.22
2022-10-21T09:35:50.290Z,5.85
2022-10-21T09:38:24.240Z,6.06
2022-10-21T09:40:54.776Z,5.71
2022-10-21T09:43:25.510Z,5.19
2022-10-21T09:45:53.255Z,5.14
2022-10-21T09:48:29.166Z,5.22
2022-10-21T09:51:00.906Z,5.02
2022-10-21T09:53:34.844Z,4.96
2022-10-21T09:56:04.853Z,4.60
2022-10-21T09:58:45.997Z,4.91
2022-10-21T10:01:18.384Z,4.73
2022-10-21T10:03:48.090Z,4.50
2022-10-21T10:06:30.857Z,4.66
2022-10-21T10:09:17.313Z,5.06
2022-10-21T10:11:52.955Z,4.83
2022-10-21T10:14:35.811Z,4.84
2022-10-21T10:17:27.199Z,4.40
2022-10-21T10:20:16.398Z,4.30
2022-10-21T10:22:44.005Z,4.61
2022-10-21T10:25:22.483Z,4.36
2022-10-21T10:27:51.742Z,5.03
2022-10-21T10:30:19.031Z,4.97
2022-10-21T10:32:50.064Z,8.67
2022-10-21T10:35:25.112Z,9.12
2022-10-21T10:37:53.253Z,8.33
2022-10-21T10:40:24.776Z,8.54
2022-10-21T10:43:01.632Z,7.90
2022-10-21T10:45:38.431Z,8.05
2022-10-21T10:48:05.624Z,6.71
2022-10-21T10:50:46.475Z,6.14
2022-10-21T10:53:21.940Z,6.04
2022-10-21T10:56:15.849Z,5.66
2022-10-21T10:58:48.450Z,5.16
2022-10-21T11:01:25.551Z,4.99
2022-10-21T11:03:57.710Z,4.72
2022-10-21T11:06:34.764Z,4.72
2022-10-21T11:09:06.062Z,4.49
2022-10-21T11:11:39.188Z,4.17
2022-10-21T11:14:15.397Z,3.80
2022-10-21T11:17:00.663Z,4.03
2022-10-21T11:19:35.512Z,4.44
2022-10-21T11:22:12.884Z,4.35
2022-10-21T11:24:54.276Z,4.19
2022-10-21T11:27:43.182Z,3.85
2022-10-21T11:30:14.015Z,4.00
2022-10-21T11:32:54.406Z,4.05
2022-10-21T11:35:33.797Z,4.15
2022-10-21T11:38:18.685Z,4.01
2022-10-21T11:40:49.207Z,3.79
2022-10-21T11:43:31.331Z,4.14
2022-10-21T11:46:04.362Z,4.06
2022-10-21T11:48:44.096Z,3.97
2022-10-21T11:51:20.522Z,4.30
2022-10-21T11:54:09.804Z,3.96
2022-10-21T11:56:43.049Z,4.05
2022-10-21T11:59:26.532Z,3.96
2022-10-21T12:02:00.825Z,4.50
2022-10-21T12:04:34.436Z,4.86
2022-10-21T12:07:17.441Z,4.83
2022-10-21T12:09:53.146Z,4.10
2022-10-21T12:12:27.035Z,3.79
2022-10-21T12:14:58.482Z,3.97
2022-10-21T12:17:26.368Z,3.56
2022-10-21T12:19:57.494Z,3.36
2022-10-21T12:22:28.379Z,3.78
2022-10-21T12:25:07.600Z,3.82
2022-10-21T12:27:43.375Z,4.22
2022-10-21T12:30:23.441Z,4.44
2022-10-21T12:33:14.382Z,3.48
2022-10-21T12:35:46.525Z,3.00
2022-10-21T12:38:44.779Z,3.02
2022-10-21T12:41:28.608Z,2.71
2022-10-21T12:44:20.527Z,2.72
2022-10-21T12:46:51.469Z,2.33
2022-10-21T12:49:22.203Z,2.45
2022-10-21T12:51:58.967Z,2.65
2022-10-21T12:54:30.519Z,2.21
2022-10-21T12:57:03.318Z,2.38
2022-10-21T12:59:35.262Z,2.07
2022-10-21T13:02:34.725Z,2.15
2022-10-21T13:05:02.776Z,2.20
2022-10-21T13:07:36.581Z,2.84
2022-10-21T13:10:28.215Z,2.91
2022-10-21T13:13:42.196Z,2.55
2022-10-21T13:16:34.318Z,2.57
2022-10-21T13:19:06.096Z,2.72
2022-10-21T13:21:41.269Z,2.51
2022-10-21T13:24:24.071Z,2.23
2022-10-21T13:26:53.869Z,2.49
2022-10-21T13:29:44.508Z,2.41
2022-10-21T13:32:25.011Z,2.16
2022-10-21T13:35:30.761Z,1.90
2022-10-21T13:38:02.251Z,1.67
2022-10-21T13:40:38.761Z,1.85
2022-10-21T13:43:13.833Z,1.58
2022-10-21T13:45:47.269Z,1.43
2022-10-21T13:48:19.851Z,1.34
2022-10-21T13:50:49.801Z,1.56
2022-10-21T13:53:27.469Z,1.72
2022-10-21T13:55:57.356Z,1.79
2022-10-21T13:58:25.831Z,1.71
2022-10-21T14:00:57.822Z,1.48
2022-10-21T14:03:27.192Z,1.48
2022-10-21T14:06:00.091Z,1.77
2022-10-21T14:08:30.036Z,1.48
2022-10-21T14:10:59.463Z,1.51
2022-10-21T14:13:31.256Z,1.46
2022-10-21T14:16:01.579Z,1.40
2022-10-21T14:18:34.967Z,1.47
2022-10-21T14:21:13.049Z,1.71
2022-10-21T14:23:39.994Z,1.56
2022-10-21T14:26:09.190Z,1.52
2022-10-21T14:28:39.266Z,1.54
2022-10-21T14:31:09.468Z,1.83
2022-10-21T14:33:38.038Z,2.11
2022-10-21T14:36:13.106Z,1.96
2022-10-21T14:38:44.546Z,1.66
2022-10-21T14:41:18.431Z,1.61
2022-10-21T14:43:50.386Z,1.65
2022-10-21T14:46:18.031Z,1.62
2022-10-21T14:48:47.965Z,1.66
2022-10-21T14:51:21.313Z,1.56
2022-10-21T14:53:56.251Z,2.07
2022-10-21T14:56:30.066Z,2.32
2022-10-21T14:58:58.914Z,2.42
2022-10-21T15:01:28.911Z,2.13
2022-10-21T15:03:57.653Z,2.03
2022-10-21T15:06:30.083Z,1.69
2022-10-21T15:09:16.806Z,2.08
2022-10-21T15:11:45.305Z,2.10
2022-10-21T15:14:30.090Z,2.38
2022-10-21T15:19:27.352Z,2.33
2022-10-21T15:22:00.068Z,2.55
2022-10-21T15:24:36.748Z,2.03
2022-10-21T15:27:04.313Z,2.04
2022-10-21T15:29:37.566Z,2.06
2022-10-21T15:32:07.308Z,2.16
2022-10-21T15:34:34.117Z,2.21
2022-10-21T15:37:03.514Z,2.03
2022-10-21T15:39:33.465Z,2.10
2022-10-21T15:42:02.223Z,2.12
2022-10-21T15:44:30.622Z,2.36
2022-10-21T15:46:59.249Z,2.39
2022-10-21T15:49:28.285Z,2.17
2022-10-21T15:51:55.174Z,2.57
2022-10-21T15:54:26.208Z,2.45
2022-10-21T15:56:55.184Z,2.24
2022-10-21T15:59:27.538Z,2.39
2022-10-21T16:01:55.947Z,2.38
2022-10-21T16:04:27.251Z,2.10
2022-10-21T16:06:54.925Z,2.17
2022-10-21T16:09:26.019Z,2.17
2022-10-21T16:12:00.767Z,2.34
2022-10-21T16:14:30.229Z,2.52
2022-10-21T16:16:58.779Z,2.24
2022-10-21T16:19:27.327Z,2.62
2022-10-21T16:21:54.684Z,2.36
2022-10-21T16:24:26.621Z,2.40
2022-10-21T16:26:55.806Z,2.28
2022-10-21T16:29:25.195Z,2.45
2022-10-21T16:31:53.425Z,2.53
2022-10-21T16:34:20.972Z,2.27
2022-10-21T16:36:51.979Z,2.42
2022-10-21T16:39:20.157Z,2.44
2022-10-21T16:41:48.983Z,2.28
2022-10-21T16:44:16.031Z,2.65
2022-10-21T16:46:50.076Z,2.77
2022-10-21T16:49:22.628Z,2.63
2022-10-21T16:51:52.223Z,2.95
2022-10-21T16:54:23.103Z,2.92
2022-10-21T16:56:55.038Z,2.69
2022-10-21T16:59:23.210Z,2.58
2022-10-21T17:01:53.998Z,2.81
2022-10-21T17:04:20.968Z,3.12
2022-10-21T17:06:49.285Z,3.40
2022-10-21T17:09:16.274Z,3.25
2022-10-21T17:11:44.018Z,3.19
2022-10-21T17:14:16.603Z,3.13
2022-10-21T17:16:44.762Z,2.97
2022-10-21T17:19:12.053Z,2.90
2022-10-21T17:21:41.055Z,3.20
2022-10-21T17:24:10.587Z,4.24
2022-10-21T17:26:39.535Z,3.77
2022-10-21T17:29:07.091Z,3.70
2022-10-21T17:31:35.833Z,3.17
2022-10-21T17:34:03.028Z,3.13
2022-10-21T17:36:30.498Z,3.20
2022-10-21T17:38:57.932Z,3.20
2022-10-21T17:41:24.695Z,3.18
2022-10-21T17:43:53.639Z,2.73
2022-10-21T17:46:24.243Z,2.81
2022-10-21T17:48:56.683Z,2.86
2022-10-21T17:51:25.278Z,2.91
2022-10-21T17:53:57.189Z,2.80
2022-10-21T17:56:24.208Z,3.02
2022-10-21T17:59:02.726Z,4.41
2022-10-21T18:01:29.748Z,4.76
2022-10-21T18:03:59.795Z,4.13
2022-10-21T18:06:26.957Z,4.14
2022-10-21T18:09:04.994Z,3.76
2022-10-21T18:11:32.266Z,3.42
2022-10-21T18:14:04.195Z,3.42
2022-10-21T18:16:32.701Z,3.45
2022-10-21T18:31:13.607Z,3.30
2022-10-21T18:33:58.152Z,3.31
2022-10-21T18:36:26.312Z,3.40
2022-10-21T18:38:53.351Z,3.04
2022-10-21T18:41:21.477Z,3.29
2022-10-21T18:43:54.625Z,2.90
2022-10-21T18:46:23.532Z,2.95
2022-10-21T18:49:01.135Z,3.04
2022-10-21T19:15:00.027Z,2.61
2022-10-21T19:17:27.110Z,2.22
2022-10-21T19:19:55.167Z,2.61
2022-10-21T19:22:22.159Z,2.60
2022-10-21T19:24:49.084Z,2.84
2022-10-21T19:27:16.179Z,2.71
2022-10-21T19:29:43.280Z,2.68
2022-10-21T19:32:12.248Z,2.62
2022-10-21T19:34:39.071Z,2.69
2022-10-21T19:37:06.122Z,2.79
2022-10-21T19:39:33.532Z,3.02
2022-10-21T19:42:00.398Z,3.07
2022-10-21T19:44:29.926Z,2.78
2022-10-21T19:46:56.763Z,2.63
2022-10-21T19:49:25.154Z,3.11
2022-10-21T19:51:51.904Z,2.84
2022-10-21T19:54:18.838Z,2.92
2022-10-21T19:56:45.795Z,2.80
2022-10-21T19:59:13.208Z,2.88
2022-10-21T20:01:40.294Z,2.82
2022-10-21T20:04:09.902Z,2.75
2022-10-21T20:06:38.397Z,2.78
2022-10-21T20:09:09.401Z,2.67
2022-10-21T20:11:37.478Z,2.58
2022-10-21T20:14:04.654Z,2.65
2022-10-21T20:16:35.609Z,2.81
2022-10-21T20:19:04.770Z,2.58
2022-10-21T20:21:33.042Z,2.73
2022-10-21T20:24:01.583Z,2.68
2022-10-21T20:26:29.145Z,2.81
2022-10-21T20:28:56.196Z,2.49
2022-10-21T20:31:26.124Z,2.82
2022-10-21T20:33:53.071Z,2.66
2022-10-21T20:36:23.560Z,2.69
2022-10-21T20:38:52.383Z,3.00
2022-10-21T20:41:23.524Z,3.46
2022-10-21T20:43:51.447Z,3.15
2022-10-21T20:46:19.890Z,2.57
2022-10-21T20:48:49.180Z,2.28
2022-10-21T20:51:20.060Z,2.42
2022-10-21T20:56:22.482Z,2.76
2022-10-21T20:58:50.340Z,2.58
2022-10-21T21:01:19.979Z,2.46
2022-10-21T21:03:49.863Z,2.91
2022-10-21T21:06:18.153Z,3.01
2022-10-21T21:08:53.430Z,2.67
2022-10-21T21:11:33.943Z,2.56
2022-10-21T21:14:01.030Z,2.78
2022-10-21T21:16:28.263Z,2.62
2022-10-21T21:18:57.304Z,2.68
2022-10-21T21:21:27.160Z,2.31
2022-10-21T21:23:54.883Z,2.31
2022-10-21T21:26:23.584Z,2.56
2022-10-21T21:28:52.668Z,2.31
2022-10-21T21:31:21.050Z,2.14
2022-10-21T21:33:47.897Z,2.08
2022-10-21T21:36:17.494Z,2.36
2022-10-21T21:38:45.457Z,2.27
2022-10-21T21:41:12.814Z,1.88
2022-10-21T21:43:41.202Z,2.21
2022-10-21T21:46:09.663Z,1.88
2022-10-21T21:48:37.932Z,1.91
2022-10-21T21:51:07.255Z,2.59
2022-10-21T21:53:36.658Z,2.25
2022-10-21T21:56:05.125Z,2.13
2022-10-21T21:58:32.016Z,2.02
2022-10-21T22:01:09.491Z,2.23
2022-10-21T22:03:36.541Z,1.67
2022-10-21T22:06:03.696Z,1.75
2022-10-21T22:08:30.501Z,1.56
2022-10-21T22:11:02.877Z,1.53
2022-10-21T22:13:29.707Z,1.48
2022-10-21T22:15:59.337Z,1.29
2022-10-21T22:18:27.735Z,1.34
2022-10-21T22:20:58.814Z,1.57
2022-10-21T22:23:27.901Z,1.30
2022-10-21T22:25:55.626Z,1.11
2022-10-21T22:28:22.383Z,1.00
2022-10-21T22:30:57.090Z,1.28
2022-10-21T22:33:24.386Z,0.90
2022-10-21T22:35:53.076Z,0.84
2022-10-21T22:38:20.048Z,0.68
2022-10-21T22:40:47.907Z,1.09
2022-10-21T22:43:15.961Z,0.95
2022-10-21T22:45:47.341Z,0.98
2022-10-21T22:48:21.176Z,0.89
2022-10-21T22:50:48.041Z,0.87
2022-10-21T22:53:16.661Z,0.96
2022-10-21T22:55:43.498Z,0.81
2022-10-21T22:58:16.575Z,1.00
2022-10-21T23:00:43.437Z,1.01
2022-10-21T23:03:10.462Z,1.02
2022-10-21T23:05:37.438Z,0.91
2022-10-21T23:08:04.830Z,0.85
2022-10-21T23:10:34.201Z,1.16
2022-10-21T23:13:01.071Z,1.02
2022-10-21T23:15:28.047Z,0.87
2022-10-21T23:17:55.171Z,0.86
2022-10-21T23:20:22.054Z,0.83
2022-10-21T23:22:49.022Z,1.23
2022-10-21T23:25:15.932Z,1.36
2022-10-21T23:27:44.393Z,1.13
2022-10-21T23:30:12.480Z,1.21
2022-10-21T23:32:39.690Z,1.15
2022-10-21T23:35:07.623Z,1.16
2022-10-21T23:37:34.622Z,1.07
2022-10-21T23:40:02.596Z,1.01
2022-10-21T23:42:29.450Z,1.21
2022-10-21T23:44:57.841Z,1.27
2022-10-21T23:47:24.850Z,1.01
2022-10-21T23:49:51.888Z,0.89
2022-10-21T23:52:18.707Z,0.81
2022-10-21T23:54:46.125Z,0.98
2022-10-21T23:57:13.249Z,1.08
2022-10-21T23:59:41.230Z,0.95
